Time;durP1;ratioP1;P1;durP2;ratioP2;P2;SDS_P1;SDS_P2;PMS_P1;PMS_P2;Temp;Humidity;BMP_temperature;BMP_pressure;BME280_temperature;BME280_humidity;BME280_pressure;Samples;Min_cycle;Max_cycle;Signal;HPM_P1;HPM_P2
2020/12/08 00:02:25;;;;;;;23.63;21.30;;;4.90;99.90;;;;;;4953314;28;20525;-80
2020/12/08 00:04:51;;;;;;;22.57;20.40;;;4.80;99.90;;;;;;4955040;28;21018;-80
2020/12/08 00:07:18;;;;;;;22.60;20.57;;;4.80;99.90;;;;;;4955424;28;20441;-80
2020/12/08 00:09:44;;;;;;;23.00;20.83;;;4.90;99.90;;;;;;4955363;28;20503;-80
2020/12/08 00:12:10;;;;;;;23.07;20.70;;;4.80;99.90;;;;;;4955102;28;20484;-80
2020/12/08 00:14:36;;;;;;;24.33;21.93;;;4.70;99.90;;;;;;4955039;28;20448;-80
2020/12/08 00:17:03;;;;;;;25.00;22.50;;;4.70;99.90;;;;;;4955001;28;20457;-80
2020/12/08 00:19:30;;;;;;;24.40;22.00;;;4.80;99.90;;;;;;4954991;28;20455;-81
2020/12/08 00:21:56;;;;;;;24.03;21.53;;;4.90;99.90;;;;;;4955027;28;20577;-80
2020/12/08 00:24:22;;;;;;;24.13;21.83;;;4.80;99.90;;;;;;4954600;28;20456;-80
2020/12/08 00:26:48;;;;;;;24.47;21.60;;;4.70;99.90;;;;;;4954670;28;20444;-80
2020/12/08 00:29:15;;;;;;;22.10;19.87;;;4.70;99.90;;;;;;4954661;28;20448;-82
2020/12/08 00:31:41;;;;;;;26.20;22.97;;;4.60;99.90;;;;;;4954655;29;21006;-82
2020/12/08 00:34:09;;;;;;;24.03;21.63;;;4.60;99.90;;;;;;4954197;28;20524;-83
2020/12/08 00:36:35;;;;;;;25.37;22.80;;;4.60;99.90;;;;;;4954988;28;20452;-81
2020/12/08 00:39:01;;;;;;;24.87;21.70;;;4.60;99.90;;;;;;4954455;29;20453;-82
2020/12/08 00:41:27;;;;;;;23.97;21.60;;;4.60;99.90;;;;;;4954588;29;20848;-82
2020/12/08 00:43:54;;;;;;;22.20;20.23;;;4.70;99.90;;;;;;4954760;29;20448;-81
2020/12/08 00:46:20;;;;;;;24.30;21.97;;;4.80;99.90;;;;;;4954510;28;20452;-81
2020/12/08 00:48:47;;;;;;;24.03;21.63;;;4.90;99.90;;;;;;4954563;29;20508;-85
2020/12/08 00:51:14;;;;;;;23.43;21.13;;;4.90;99.90;;;;;;4954647;29;20491;-83
2020/12/08 00:53:41;;;;;;;25.00;22.60;;;4.80;99.90;;;;;;4957869;28;20456;-79
2020/12/08 00:56:11;;;;;;;24.17;22.00;;;4.90;99.90;;;;;;4954188;28;20467;-80
2020/12/08 00:58:37;;;;;;;24.93;22.33;;;5.00;99.90;;;;;;4955116;28;20441;-80
2020/12/08 01:01:04;;;;;;;26.83;24.20;;;4.90;99.90;;;;;;4954516;28;20452;-80
2020/12/08 01:03:30;;;;;;;25.90;22.37;;;4.90;99.90;;;;;;4955817;29;20510;-84
2020/12/08 01:05:56;;;;;;;25.80;23.37;;;4.80;99.90;;;;;;4954507;29;20452;-83
2020/12/08 01:08:23;;;;;;;27.37;23.43;;;4.80;99.90;;;;;;4953997;29;20444;-83
2020/12/08 01:10:50;;;;;;;27.20;23.70;;;4.70;99.90;;;;;;4954193;28;20481;-85
2020/12/08 01:13:16;;;;;;;24.70;22.20;;;4.80;99.90;;;;;;4953767;28;20457;-84
2020/12/08 01:15:42;;;;;;;26.37;23.47;;;5.00;99.90;;;;;;4954173;28;20453;-84
2020/12/08 01:18:08;;;;;;;25.03;22.50;;;4.90;99.90;;;;;;4953896;28;20453;-84
2020/12/08 01:20:34;;;;;;;28.20;23.40;;;4.90;99.90;;;;;;4954004;29;21019;-84
2020/12/08 01:23:00;;;;;;;24.10;21.80;;;4.90;99.90;;;;;;4953953;29;20492;-83
2020/12/08 01:25:27;;;;;;;33.27;25.43;;;4.80;99.90;;;;;;4954192;28;20449;-83
2020/12/08 01:27:53;;;;;;;27.50;24.63;;;4.80;99.90;;;;;;4953806;29;20511;-82
2020/12/08 01:30:20;;;;;;;31.10;25.00;;;4.70;99.90;;;;;;4953373;28;20441;-83
2020/12/08 01:32:46;;;;;;;26.80;23.10;;;4.70;99.90;;;;;;4953571;28;20476;-82
2020/12/08 01:35:12;;;;;;;27.23;24.33;;;4.60;99.90;;;;;;4953659;28;20484;-81
2020/12/08 01:37:38;;;;;;;29.10;25.73;;;4.60;99.90;;;;;;4953650;28;20463;-81
2020/12/08 01:40:05;;;;;;;27.83;25.03;;;4.50;99.90;;;;;;4953744;28;20842;-82
2020/12/08 01:42:32;;;;;;;28.03;24.97;;;4.60;99.90;;;;;;4953731;28;20882;-81
2020/12/08 01:44:58;;;;;;;27.83;23.77;;;4.60;99.90;;;;;;4953578;28;20868;-81
2020/12/08 01:47:24;;;;;;;27.53;24.67;;;4.50;99.90;;;;;;4953605;28;20449;-83
2020/12/08 01:49:51;;;;;;;28.10;25.10;;;4.40;99.90;;;;;;4953391;28;20931;-82
2020/12/08 01:52:18;;;;;;;28.67;25.57;;;4.30;99.90;;;;;;4953395;28;20544;-82
2020/12/08 01:54:45;;;;;;;27.73;23.57;;;4.40;99.90;;;;;;4953482;28;21012;-82
2020/12/08 01:57:12;;;;;;;29.47;26.30;;;4.20;99.90;;;;;;4953226;28;20457;-80
2020/12/08 01:59:39;;;;;;;28.87;24.10;;;4.10;99.90;;;;;;4953282;28;20888;-80
2020/12/08 02:02:05;;;;;;;29.00;26.00;;;4.10;99.90;;;;;;4953390;28;20436;-80
2020/12/08 02:04:32;;;;;;;31.67;27.97;;;4.30;99.90;;;;;;4953544;28;20449;-80
2020/12/08 02:06:59;;;;;;;32.30;27.87;;;4.30;99.90;;;;;;4953245;28;20546;-79
2020/12/08 02:09:25;;;;;;;31.73;27.07;;;4.20;99.90;;;;;;4953324;28;20456;-79
2020/12/08 02:11:51;;;;;;;29.50;26.30;;;4.20;99.90;;;;;;4952986;28;20998;-79
2020/12/08 02:14:17;;;;;;;32.47;27.47;;;4.30;99.90;;;;;;4953116;28;20574;-81
2020/12/08 02:16:44;;;;;;;31.00;25.83;;;4.30;99.90;;;;;;4953661;28;20445;-81
2020/12/08 02:19:10;;;;;;;31.80;28.47;;;4.20;99.90;;;;;;4968012;28;20448;-79
2020/12/08 02:21:37;;;;;;;31.77;26.80;;;4.10;99.90;;;;;;4963177;28;20470;-80
2020/12/08 02:24:03;;;;;;;30.67;26.23;;;4.10;99.90;;;;;;4952692;28;20818;-80
2020/12/08 02:26:30;;;;;;;30.37;25.77;;;4.10;99.90;;;;;;4952834;28;20452;-81
2020/12/08 02:28:56;;;;;;;27.93;25.13;;;4.00;99.90;;;;;;4952777;28;20457;-80
2020/12/08 02:31:22;;;;;;;28.60;25.53;;;4.00;99.90;;;;;;4952432;28;20488;-80
2020/12/08 02:33:49;;;;;;;31.27;27.13;;;4.00;99.90;;;;;;4951478;28;20476;-80
2020/12/08 02:36:15;;;;;;;34.67;28.43;;;3.90;99.90;;;;;;4954755;28;20445;-82
2020/12/08 02:38:42;;;;;;;31.90;27.50;;;3.80;99.90;;;;;;4952944;28;20943;-84
2020/12/08 02:41:08;;;;;;;37.13;28.63;;;3.70;99.90;;;;;;4952435;28;20939;-83
2020/12/08 02:43:34;;;;;;;35.83;27.50;;;3.70;99.90;;;;;;4952405;28;20471;-80
2020/12/08 02:46:01;;;;;;;37.03;27.20;;;3.70;99.90;;;;;;4952355;28;20448;-79
2020/12/08 02:48:27;;;;;;;28.57;25.27;;;3.60;99.90;;;;;;4952756;28;20455;-81
2020/12/08 02:50:53;;;;;;;28.17;24.90;;;3.60;99.90;;;;;;4952407;28;20481;-82
2020/12/08 02:53:20;;;;;;;31.87;24.90;;;3.60;99.90;;;;;;4952093;28;20444;-81
2020/12/08 02:55:47;;;;;;;29.10;24.30;;;3.60;99.90;;;;;;4952343;28;20463;-83
2020/12/08 02:58:13;;;;;;;27.30;24.40;;;3.60;99.90;;;;;;4952793;28;20841;-81
2020/12/08 03:00:40;;;;;;;26.00;23.30;;;3.60;99.90;;;;;;4952393;28;20449;-84
2020/12/08 03:03:06;;;;;;;26.23;23.53;;;3.50;99.90;;;;;;4952316;28;20863;-85
2020/12/08 03:05:33;;;;;;;25.10;21.77;;;3.50;99.90;;;;;;4952219;28;20444;-80
2020/12/08 03:07:59;;;;;;;31.60;26.80;;;3.50;99.90;;;;;;4952393;28;20445;-84
2020/12/08 03:10:25;;;;;;;30.77;26.93;;;3.60;99.90;;;;;;4959496;28;20452;-84
2020/12/08 03:12:52;;;;;;;28.47;25.43;;;3.60;99.90;;;;;;4960900;28;20943;-83
2020/12/08 03:15:18;;;;;;;29.60;24.70;;;3.70;99.90;;;;;;4956310;28;20452;-84
2020/12/08 03:17:45;;;;;;;30.43;26.10;;;3.60;99.90;;;;;;4952757;28;20444;-83
2020/12/08 03:20:11;;;;;;;27.00;24.23;;;3.60;99.90;;;;;;4952660;28;20448;-83
2020/12/08 03:22:37;;;;;;;28.10;23.37;;;3.60;99.90;;;;;;4952176;28;20449;-82
2020/12/08 03:25:04;;;;;;;27.80;25.10;;;3.60;99.90;;;;;;4952115;28;20445;-82
2020/12/08 03:27:30;;;;;;;33.07;27.07;;;3.50;99.90;;;;;;4952044;28;20451;-83
2020/12/08 03:29:57;;;;;;;35.63;28.70;;;3.50;99.90;;;;;;4952104;28;20455;-83
2020/12/08 03:32:23;;;;;;;35.80;29.90;;;3.50;99.90;;;;;;4951814;29;21022;-83
2020/12/08 03:34:50;;;;;;;27.93;25.00;;;3.40;99.90;;;;;;4951772;28;20472;-82
2020/12/08 03:37:16;;;;;;;30.63;26.00;;;3.20;99.90;;;;;;4954643;28;20440;-82
2020/12/08 03:39:42;;;;;;;28.80;25.90;;;3.20;99.90;;;;;;4955729;28;20471;-83
2020/12/08 03:42:08;;;;;;;32.47;27.73;;;3.10;99.90;;;;;;4955791;28;20441;-83
2020/12/08 03:44:34;;;;;;;34.90;26.87;;;3.00;99.90;;;;;;4955511;29;20451;-83
2020/12/08 03:47:03;;;;;;;32.00;25.67;;;3.00;99.90;;;;;;4955521;29;20447;-83
2020/12/08 03:49:30;;;;;;;30.63;26.63;;;3.00;99.90;;;;;;4955585;28;20440;-83
2020/12/08 03:51:57;;;;;;;33.30;28.43;;;3.00;99.90;;;;;;4955830;29;20484;-83
2020/12/08 03:54:23;;;;;;;30.70;25.93;;;2.90;99.90;;;;;;4955389;28;20938;-83
2020/12/08 03:56:49;;;;;;;33.30;26.00;;;2.90;99.90;;;;;;4955420;28;20456;-83
2020/12/08 03:59:17;;;;;;;29.47;26.27;;;2.90;99.90;;;;;;4955271;29;20448;-82
2020/12/08 04:01:45;;;;;;;33.90;26.83;;;2.70;99.90;;;;;;4955215;28;20436;-82
2020/12/08 04:04:12;;;;;;;32.20;26.00;;;2.70;99.90;;;;;;4955520;28;20448;-82
2020/12/08 04:06:38;;;;;;;26.67;23.30;;;2.60;99.90;;;;;;4955675;28;20449;-83
2020/12/08 04:09:05;;;;;;;33.23;27.10;;;2.70;99.90;;;;;;4955343;28;20453;-82
2020/12/08 04:11:32;;;;;;;29.10;26.00;;;2.80;99.90;;;;;;4955081;29;20889;-83
2020/12/08 04:13:59;;;;;;;37.40;28.57;;;2.70;99.90;;;;;;4955083;29;20656;-83
2020/12/08 04:16:26;;;;;;;30.20;25.97;;;2.60;99.90;;;;;;4955244;28;20488;-82
2020/12/08 04:18:52;;;;;;;33.33;25.87;;;2.60;99.90;;;;;;4955373;28;20452;-83
2020/12/08 04:21:23;;;;;;;29.10;26.00;;;2.60;99.90;;;;;;4955090;29;20535;-84
2020/12/08 04:23:50;;;;;;;33.23;27.90;;;2.40;99.90;;;;;;4955224;29;20835;-84
2020/12/08 04:26:16;;;;;;;30.60;24.47;;;2.40;99.90;;;;;;4955762;28;20441;-88
2020/12/08 04:28:42;;;;;;;30.67;26.80;;;2.30;99.90;;;;;;4955800;29;20454;-88
2020/12/08 04:31:13;;;;;;;32.73;26.73;;;2.30;99.90;;;;;;4955693;28;20591;-87
2020/12/08 04:33:39;;;;;;;34.53;26.33;;;2.20;99.90;;;;;;4956097;28;20500;-87
2020/12/08 04:36:11;;;;;;;27.93;24.97;;;2.10;99.90;;;;;;4955041;28;20485;-84
2020/12/08 04:38:38;;;;;;;33.97;26.63;;;2.10;99.90;;;;;;4954945;28;20934;-84
2020/12/08 04:41:05;;;;;;;31.73;27.00;;;2.10;99.90;;;;;;4954771;28;20437;-83
2020/12/08 04:43:31;;;;;;;35.47;28.70;;;2.00;99.90;;;;;;4954699;28;20444;-83
2020/12/08 04:45:58;;;;;;;32.43;25.80;;;1.90;99.90;;;;;;4954633;28;20800;-81
2020/12/08 04:48:24;;;;;;;40.23;29.03;;;1.90;99.90;;;;;;4953784;28;20449;-83
2020/12/08 04:50:50;;;;;;;33.43;26.23;;;2.00;99.90;;;;;;4954913;28;20939;-83
2020/12/08 04:53:17;;;;;;;35.30;28.70;;;2.00;99.90;;;;;;4954695;28;20460;-82
2020/12/08 04:55:44;;;;;;;36.63;28.40;;;1.90;99.90;;;;;;4954653;28;20452;-83
2020/12/08 04:58:10;;;;;;;30.63;27.37;;;2.00;99.90;;;;;;4954339;28;20445;-83
2020/12/08 05:00:40;;;;;;;31.30;27.10;;;2.10;99.90;;;;;;4954721;28;20903;-83
2020/12/08 05:03:06;;;;;;;38.10;29.37;;;2.10;99.90;;;;;;4954590;28;20484;-83
2020/12/08 05:05:39;;;;;;;36.17;29.17;;;2.20;99.90;;;;;;4953908;28;20455;-82
2020/12/08 05:08:12;;;;;;;38.23;28.07;;;2.30;99.90;;;;;;4955618;28;20448;-81
2020/12/08 05:10:39;;;;;;;37.93;27.67;;;2.40;99.90;;;;;;4973186;28;20512;-80
2020/12/08 05:13:08;;;;;;;37.67;27.67;;;2.50;99.90;;;;;;4964365;28;20452;-82
2020/12/08 05:15:34;;;;;;;36.60;28.30;;;2.50;99.90;;;;;;4954951;28;20444;-81
2020/12/08 05:18:08;;;;;;;42.23;30.90;;;2.50;99.90;;;;;;4954161;28;20852;-82
2020/12/08 05:20:34;;;;;;;34.60;29.27;;;2.70;99.90;;;;;;4965090;28;20440;-85
2020/12/08 05:23:01;;;;;;;38.37;29.13;;;2.80;99.90;;;;;;4973827;28;20453;-85
2020/12/08 05:25:28;;;;;;;37.10;27.47;;;2.70;99.90;;;;;;4960577;28;20821;-86
2020/12/08 05:27:56;;;;;;;42.57;33.20;;;2.60;99.90;;;;;;4954542;28;20457;-85
2020/12/08 05:30:23;;;;;;;35.63;29.90;;;2.60;99.90;;;;;;4953923;28;20843;-86
2020/12/08 05:32:50;;;;;;;34.57;30.30;;;2.60;99.90;;;;;;4953724;28;20492;-85
2020/12/08 05:35:18;;;;;;;36.30;26.57;;;2.70;99.90;;;;;;4953216;28;20833;-84
2020/12/08 05:37:45;;;;;;;34.67;30.00;;;2.80;99.90;;;;;;4953550;28;20448;-84
2020/12/08 05:40:13;;;;;;;34.80;27.70;;;2.90;99.90;;;;;;4953786;29;20451;-84
2020/12/08 05:42:41;;;;;;;38.33;28.90;;;3.00;99.90;;;;;;4954048;28;20452;-87
2020/12/08 05:45:09;;;;;;;38.57;29.53;;;3.00;99.90;;;;;;4953879;29;20449;-86
2020/12/08 05:47:49;;;;;;;38.37;29.50;;;3.00;99.90;;;;;;4953524;29;20448;-85
2020/12/08 05:50:16;;;;;;;34.43;27.20;;;3.00;99.90;;;;;;4954400;29;20440;-84
2020/12/08 05:52:47;;;;;;;36.27;27.33;;;3.00;99.90;;;;;;4953833;29;20488;-87
2020/12/08 05:55:14;;;;;;;36.03;28.20;;;3.10;99.90;;;;;;4953795;28;20456;-72
2020/12/08 05:57:41;;;;;;;33.97;28.00;;;3.10;99.90;;;;;;4953229;29;20464;-72
2020/12/08 06:00:08;;;;;;;35.00;28.23;;;3.00;99.90;;;;;;4952998;28;20455;-72
2020/12/08 06:02:35;;;;;;;37.03;29.87;;;3.00;99.90;;;;;;4953686;28;20451;-84
2020/12/08 06:05:02;;;;;;;37.00;29.80;;;3.00;99.90;;;;;;4953507;29;20951;-87
2020/12/08 06:07:32;;;;;;;38.00;28.97;;;3.00;99.90;;;;;;4953703;29;20475;-84
2020/12/08 06:10:09;;;;;;;37.63;30.60;;;3.00;99.90;;;;;;4953119;29;20480;-83
2020/12/08 06:12:36;;;;;;;34.23;28.30;;;3.00;99.90;;;;;;4953078;29;20960;-82
2020/12/08 06:15:13;;;;;;;39.83;28.83;;;3.10;99.90;;;;;;4952941;29;20456;-82
2020/12/08 06:17:44;;;;;;;36.63;28.00;;;3.20;99.90;;;;;;4953423;28;20444;-80
2020/12/08 06:20:11;;;;;;;38.37;28.93;;;3.20;99.90;;;;;;4952907;29;20536;-80
2020/12/08 06:22:38;;;;;;;39.13;30.30;;;3.30;99.90;;;;;;4952770;29;20951;-81
2020/12/08 06:25:04;;;;;;;32.03;25.80;;;3.30;99.90;;;;;;4952934;28;20861;-81
2020/12/08 06:27:31;;;;;;;36.37;27.87;;;3.30;99.90;;;;;;4952968;28;20449;-81
2020/12/08 06:29:57;;;;;;;34.70;30.53;;;3.20;99.90;;;;;;4952890;29;20456;-81
2020/12/08 06:32:28;;;;;;;33.67;27.07;;;3.20;99.90;;;;;;4952979;28;20499;-81
2020/12/08 06:35:08;;;;;;;33.47;27.40;;;3.10;99.90;;;;;;4952690;28;20479;-81
2020/12/08 06:37:36;;;;;;;41.83;28.27;;;3.10;99.90;;;;;;4952830;28;20455;-81
2020/12/08 06:40:10;;;;;;;34.03;26.80;;;3.00;99.90;;;;;;4952780;28;20451;-82
2020/12/08 06:42:36;;;;;;;40.27;29.77;;;2.80;99.90;;;;;;4952640;28;20440;-82
2020/12/08 06:45:07;;;;;;;42.60;29.90;;;2.80;99.90;;;;;;4952657;28;20449;-82
2020/12/08 06:47:33;;;;;;;37.30;28.00;;;2.60;99.90;;;;;;4953205;28;20456;-86
2020/12/08 06:49:59;;;;;;;32.57;26.93;;;2.60;99.90;;;;;;4953227;28;20449;-85
2020/12/08 06:52:25;;;;;;;35.03;28.13;;;2.50;99.90;;;;;;4953570;28;21017;-88
2020/12/08 06:54:58;;;;;;;35.17;27.03;;;2.50;99.90;;;;;;4952598;28;20821;-87
2020/12/08 06:57:24;;;;;;;41.40;28.10;;;2.50;99.90;;;;;;4953085;28;20488;-86
2020/12/08 07:00:00;;;;;;;38.47;29.50;;;2.40;99.90;;;;;;4952554;28;20464;-72
2020/12/08 07:02:27;;;;;;;40.67;28.03;;;2.40;99.90;;;;;;4952430;28;20464;-83
2020/12/08 07:04:54;;;;;;;40.80;31.20;;;2.30;99.90;;;;;;4952563;28;20441;-84
2020/12/08 07:07:20;;;;;;;36.43;29.00;;;2.30;99.90;;;;;;4952520;28;20452;-84
2020/12/08 07:09:46;;;;;;;35.97;28.60;;;2.20;99.90;;;;;;4952602;28;20443;-83
2020/12/08 07:12:13;;;;;;;42.03;29.00;;;2.10;99.90;;;;;;4955602;28;20488;-84
2020/12/08 07:14:39;;;;;;;40.17;29.60;;;2.10;99.90;;;;;;4956564;28;20448;-83
2020/12/08 07:17:06;;;;;;;38.60;29.20;;;2.10;99.90;;;;;;4958843;28;20444;-84
2020/12/08 07:19:33;;;;;;;40.13;33.13;;;2.10;99.90;;;;;;4956719;28;20445;-84
2020/12/08 07:22:00;;;;;;;40.37;28.20;;;2.20;99.90;;;;;;4957891;28;20456;-83
2020/12/08 07:24:26;;;;;;;40.27;29.67;;;2.30;99.90;;;;;;4956464;28;20754;-84
2020/12/08 07:26:58;;;;;;;39.20;30.50;;;2.30;99.90;;;;;;4956049;28;20448;-85
2020/12/08 07:29:25;;;;;;;44.00;31.07;;;2.30;99.90;;;;;;4965624;28;20437;-83
2020/12/08 07:31:52;;;;;;;41.80;30.30;;;2.30;99.90;;;;;;4970721;29;20496;-83
2020/12/08 07:34:18;;;;;;;39.60;29.80;;;2.40;99.90;;;;;;4960169;28;20472;-83
2020/12/08 07:36:44;;;;;;;48.33;31.30;;;2.40;99.90;;;;;;4956545;29;20456;-83
2020/12/08 07:39:17;;;;;;;39.97;30.87;;;2.60;99.90;;;;;;4956544;28;20444;-83
2020/12/08 07:41:43;;;;;;;46.50;31.93;;;2.80;99.90;;;;;;4956665;28;20456;-83
2020/12/08 07:44:12;;;;;;;43.20;31.13;;;3.30;99.90;;;;;;4956129;29;20548;-83
2020/12/08 07:46:48;;;;;;;36.73;29.43;;;3.80;99.90;;;;;;4955808;28;20448;-83
2020/12/08 07:49:15;;;;;;;41.90;32.27;;;4.40;99.90;;;;;;4955917;29;20451;-84
2020/12/08 07:51:41;;;;;;;38.80;29.10;;;4.60;99.90;;;;;;4958006;28;20488;-85
2020/12/08 07:54:08;;;;;;;34.47;29.13;;;5.00;99.90;;;;;;4955978;29;20448;-87
2020/12/08 07:56:36;;;;;;;33.10;29.60;;;5.70;99.90;;;;;;4957033;28;20452;-89
2020/12/08 07:59:04;;;;;;;28.47;25.70;;;6.30;99.90;;;;;;4956637;29;20445;-87
2020/12/08 08:01:39;;;;;;;30.03;27.00;;;6.50;99.90;;;;;;4961376;29;20470;-88
2020/12/08 08:04:05;;;;;;;30.30;25.67;;;6.10;99.90;;;;;;4980936;28;20425;-87
2020/12/08 08:06:31;;;;;;;32.00;28.50;;;5.60;99.90;;;;;;4979748;28;20449;-89
2020/12/08 08:08:58;;;;;;;30.77;26.60;;;5.20;99.90;;;;;;4975897;28;20448;-89
2020/12/08 08:11:24;;;;;;;32.23;27.67;;;4.70;99.90;;;;;;4962627;29;20484;-89
2020/12/08 08:13:50;;;;;;;33.17;28.30;;;4.20;99.90;;;;;;4957311;29;20444;-89
2020/12/08 08:16:16;;;;;;;36.40;26.47;;;4.00;99.90;;;;;;4956672;29;20456;-88
2020/12/08 08:18:44;;;;;;;32.70;26.27;;;4.00;99.90;;;;;;4957110;29;20452;-88
2020/12/08 08:21:12;;;;;;;30.10;26.80;;;3.90;99.90;;;;;;4955945;28;20456;-87
2020/12/08 08:23:39;;;;;;;36.57;27.60;;;3.70;99.90;;;;;;4954463;28;20441;-87
2020/12/08 08:26:06;;;;;;;31.30;26.40;;;3.60;99.90;;;;;;4955475;28;20443;-87
2020/12/08 08:28:32;;;;;;;33.10;27.50;;;3.70;99.90;;;;;;4955526;29;20807;-87
2020/12/08 08:30:59;;;;;;;32.43;27.77;;;4.30;99.90;;;;;;4955539;29;20456;-85
2020/12/08 08:33:25;;;;;;;30.60;27.03;;;5.10;99.90;;;;;;4955060;28;20468;-85
2020/12/08 08:35:52;;;;;;;28.37;25.43;;;6.10;99.90;;;;;;4954759;28;20487;-85
2020/12/08 08:38:19;;;;;;;28.80;25.90;;;7.30;99.90;;;;;;4956267;28;20801;-87
2020/12/08 08:40:45;;;;;;;28.33;25.47;;;8.00;99.90;;;;;;4955249;28;20488;-87
2020/12/08 08:43:11;;;;;;;29.30;26.43;;;9.00;99.90;;;;;;4954863;28;20467;-83
2020/12/08 08:45:38;;;;;;;32.27;29.07;;;10.10;99.90;;;;;;4955802;28;20444;-80
2020/12/08 08:48:05;;;;;;;30.43;27.83;;;10.90;99.80;;;;;;4954937;28;20460;-83
2020/12/08 08:50:31;;;;;;;31.10;27.90;;;11.80;98.00;;;;;;4954498;28;20451;-86
2020/12/08 08:52:58;;;;;;;31.47;28.50;;;11.60;96.60;;;;;;4955535;28;21017;-84
2020/12/08 08:55:25;;;;;;;31.57;28.73;;;11.60;96.60;;;;;;4954240;28;21005;-82
2020/12/08 08:57:51;;;;;;;30.87;27.77;;;11.50;95.60;;;;;;4954311;28;20475;-82
2020/12/08 09:00:17;;;;;;;30.03;27.33;;;11.10;96.40;;;;;;4954478;28;20477;-82
2020/12/08 09:02:43;;;;;;;30.77;27.97;;;11.30;96.40;;;;;;4954892;28;20452;-86
2020/12/08 09:05:09;;;;;;;31.77;28.83;;;11.80;95.40;;;;;;4955287;28;20453;-88
2020/12/08 09:07:35;;;;;;;31.70;28.67;;;11.10;95.60;;;;;;4957024;28;20962;-84
2020/12/08 09:10:03;;;;;;;33.07;29.87;;;10.60;97.00;;;;;;4954141;28;20459;-82
2020/12/08 09:12:29;;;;;;;31.90;28.90;;;11.00;96.40;;;;;;4954296;28;20476;-83
2020/12/08 09:14:57;;;;;;;32.87;29.80;;;11.40;96.30;;;;;;4954095;28;20453;-85
2020/12/08 09:17:23;;;;;;;29.93;27.20;;;12.00;94.90;;;;;;4954050;28;20955;-83
2020/12/08 09:19:50;;;;;;;33.17;27.90;;;12.40;94.50;;;;;;4954051;28;20440;-87
2020/12/08 09:22:16;;;;;;;31.47;28.57;;;12.90;92.30;;;;;;4954376;28;20441;-86
2020/12/08 09:24:42;;;;;;;32.60;29.60;;;12.60;92.70;;;;;;4954143;28;20939;-86
2020/12/08 09:27:09;;;;;;;34.27;31.00;;;13.60;90.70;;;;;;4953918;28;20801;-87
2020/12/08 09:29:36;;;;;;;32.93;29.77;;;13.90;90.00;;;;;;4954180;28;20445;-86
2020/12/08 09:32:03;;;;;;;31.20;28.20;;;14.40;88.40;;;;;;4954175;29;20488;-90
2020/12/08 09:34:29;;;;;;;33.13;29.87;;;13.90;87.30;;;;;;4955512;28;20986;-87
2020/12/08 09:36:57;;;;;;;33.37;29.80;;;13.90;89.20;;;;;;4954459;29;20445;-86
2020/12/08 09:39:24;;;;;;;32.60;29.70;;;14.10;87.00;;;;;;4954463;28;20811;-78
2020/12/08 09:41:50;;;;;;;36.90;33.10;;;14.70;86.90;;;;;;5013132;23;20758;-82
2020/12/08 09:44:17;;;;;;;32.33;29.43;;;14.70;83.30;;;;;;4980117;28;20470;-80
2020/12/08 09:46:44;;;;;;;34.43;31.27;;;14.90;83.10;;;;;;4973192;28;20465;-80
2020/12/08 09:49:12;;;;;;;33.43;29.93;;;15.20;82.10;;;;;;4972789;28;20446;-81
2020/12/08 09:51:38;;;;;;;33.43;30.33;;;15.70;80.10;;;;;;4972645;28;20487;-81
2020/12/08 09:54:05;;;;;;;33.60;30.50;;;15.80;78.60;;;;;;4972659;28;20439;-81
2020/12/08 09:56:31;;;;;;;32.37;29.27;;;15.70;77.80;;;;;;4972413;28;20436;-80
2020/12/08 09:58:57;;;;;;;33.10;30.00;;;14.20;81.10;;;;;;4972505;28;20506;-80
2020/12/08 10:01:29;;;;;;;31.43;28.63;;;14.10;82.60;;;;;;4972194;28;20458;-80
2020/12/08 10:03:55;;;;;;;31.60;28.47;;;14.10;83.80;;;;;;4972420;28;20475;-81
2020/12/08 10:06:21;;;;;;;32.47;29.27;;;13.50;85.80;;;;;;4972203;28;20450;-80
2020/12/08 10:08:48;;;;;;;32.60;29.67;;;14.30;83.80;;;;;;4972027;28;20934;-80
2020/12/08 10:11:14;;;;;;;31.83;28.93;;;14.90;80.70;;;;;;4972272;28;20439;-81
2020/12/08 10:13:41;;;;;;;34.13;31.07;;;14.70;81.00;;;;;;4971965;28;20440;-81
2020/12/08 10:16:07;;;;;;;32.33;29.53;;;15.10;80.20;;;;;;4971828;28;20455;-81
2020/12/08 10:18:35;;;;;;;33.80;30.50;;;15.10;78.40;;;;;;4971884;28;20444;-81
2020/12/08 10:21:02;;;;;;;31.23;28.43;;;15.10;79.20;;;;;;4971856;28;20454;-82
2020/12/08 10:23:28;;;;;;;30.27;27.73;;;16.10;76.40;;;;;;4972009;28;20444;-81
2020/12/08 10:25:54;;;;;;;32.33;29.47;;;16.40;74.20;;;;;;4972456;28;20476;-82
2020/12/08 10:28:21;;;;;;;32.10;29.20;;;16.00;74.80;;;;;;4971765;28;20507;-82
2020/12/08 10:30:48;;;;;;;31.73;28.90;;;16.20;75.20;;;;;;4971499;28;20455;-81
2020/12/08 10:33:16;;;;;;;32.93;30.10;;;16.60;73.90;;;;;;4958821;28;20559;-81
2020/12/08 10:35:43;;;;;;;33.20;30.30;;;16.40;73.90;;;;;;4952421;28;20461;-81
2020/12/08 10:38:11;;;;;;;31.97;29.13;;;16.80;73.10;;;;;;4952476;28;20811;-81
2020/12/08 10:40:37;;;;;;;30.77;28.07;;;16.90;71.70;;;;;;4949275;28;20445;-81
2020/12/08 10:43:03;;;;;;;32.13;29.33;;;17.10;70.50;;;;;;4950607;28;20484;-81
2020/12/08 10:45:29;;;;;;;31.00;28.33;;;16.70;71.70;;;;;;4951811;28;20448;-77
2020/12/08 10:47:55;;;;;;;30.60;27.80;;;16.80;73.10;;;;;;4952843;28;20464;-81
2020/12/08 10:50:22;;;;;;;31.33;28.60;;;16.70;71.70;;;;;;4952727;28;21039;-81
2020/12/08 10:52:49;;;;;;;30.27;27.97;;;17.20;69.80;;;;;;4952632;28;20515;-81
2020/12/08 10:55:17;;;;;;;30.73;28.10;;;17.60;70.70;;;;;;4952266;28;20958;-80
2020/12/08 10:57:43;;;;;;;29.40;26.97;;;17.40;70.70;;;;;;4960493;28;20469;-79
2020/12/08 11:00:09;;;;;;;30.47;27.97;;;18.00;67.50;;;;;;4964061;28;20453;-80
2020/12/08 11:02:35;;;;;;;31.23;28.50;;;17.00;70.00;;;;;;4953417;29;20957;-83
2020/12/08 11:05:05;;;;;;;29.37;26.93;;;17.10;69.00;;;;;;4952504;29;20448;-82
2020/12/08 11:07:31;;;;;;;31.73;29.03;;;17.00;69.70;;;;;;4952268;29;20803;-82
2020/12/08 11:09:58;;;;;;;31.10;28.30;;;16.20;70.50;;;;;;4952102;28;20483;-81
2020/12/08 11:12:24;;;;;;;32.93;29.87;;;16.10;71.50;;;;;;4952135;28;20994;-83
2020/12/08 11:14:51;;;;;;;30.73;28.10;;;16.30;70.90;;;;;;4951991;28;20444;-82
2020/12/08 11:17:17;;;;;;;29.97;27.20;;;15.40;73.70;;;;;;4952103;28;20444;-83
2020/12/08 11:19:43;;;;;;;31.00;28.37;;;15.50;73.60;;;;;;4952190;28;20969;-83
2020/12/08 11:22:11;;;;;;;32.20;29.20;;;14.90;76.10;;;;;;4952270;28;20437;-84
2020/12/08 11:24:38;;;;;;;32.27;29.17;;;14.30;76.10;;;;;;4952086;28;20455;-83
2020/12/08 11:27:05;;;;;;;30.17;27.50;;;14.50;76.80;;;;;;4951780;29;20455;-86
2020/12/08 11:29:31;;;;;;;31.37;28.37;;;14.90;75.20;;;;;;4952102;28;20455;-85
2020/12/08 11:31:58;;;;;;;29.37;26.67;;;15.10;75.10;;;;;;4952183;28;20960;-85
2020/12/08 11:34:24;;;;;;;30.30;27.50;;;14.90;74.90;;;;;;4952464;28;20448;-87
2020/12/08 11:36:55;;;;;;;31.90;29.00;;;14.50;75.80;;;;;;4952495;28;20566;-85
2020/12/08 11:39:21;;;;;;;30.70;27.63;;;13.60;77.90;;;;;;4951852;28;20448;-84
2020/12/08 11:41:47;;;;;;;30.17;27.43;;;13.10;80.40;;;;;;4951744;28;20480;-84
2020/12/08 11:44:14;;;;;;;31.00;28.00;;;12.70;82.30;;;;;;4952084;28;20973;-83
2020/12/08 11:46:40;;;;;;;30.47;27.53;;;12.50;83.60;;;;;;4952267;28;20912;-84
2020/12/08 11:49:07;;;;;;;28.53;25.80;;;12.60;84.60;;;;;;4951538;28;20465;-84
2020/12/08 11:51:33;;;;;;;27.23;24.67;;;13.10;83.80;;;;;;4951653;28;20444;-84
2020/12/08 11:53:59;;;;;;;28.13;25.53;;;13.20;82.50;;;;;;4952057;28;20866;-83
2020/12/08 11:56:26;;;;;;;30.80;27.97;;;13.60;81.50;;;;;;4956631;28;20437;-83
2020/12/08 11:58:52;;;;;;;30.67;27.60;;;14.10;79.80;;;;;;4961036;28;20449;-82
2020/12/08 12:01:20;;;;;;;30.33;27.43;;;14.20;79.00;;;;;;4956143;28;20849;-84
2020/12/08 12:03:46;;;;;;;32.67;29.50;;;14.30;77.80;;;;;;4955160;28;20444;-82
2020/12/08 12:06:13;;;;;;;30.57;27.73;;;14.60;78.10;;;;;;4955565;28;20441;-83
2020/12/08 12:08:39;;;;;;;29.80;27.33;;;15.10;76.40;;;;;;4955251;28;20452;-83
2020/12/08 12:11:06;;;;;;;29.27;26.50;;;14.90;76.40;;;;;;4955307;28;20676;-84
2020/12/08 12:13:32;;;;;;;30.10;27.60;;;15.20;75.90;;;;;;4954847;28;20496;-84
2020/12/08 12:15:58;;;;;;;32.40;29.40;;;15.30;74.30;;;;;;4955236;28;20970;-84
2020/12/08 12:18:25;;;;;;;28.77;26.30;;;15.40;74.60;;;;;;4955208;28;20453;-83
2020/12/08 12:20:52;;;;;;;27.70;25.40;;;14.90;75.00;;;;;;4953252;28;20464;-79
2020/12/08 12:23:19;;;;;;;27.53;25.17;;;13.90;77.90;;;;;;4955283;28;20440;-83
2020/12/08 12:25:45;;;;;;;27.37;25.07;;;13.40;79.90;;;;;;4955335;28;20460;-81
2020/12/08 12:28:11;;;;;;;26.13;23.43;;;12.60;82.40;;;;;;4955098;28;20994;-84
2020/12/08 12:30:37;;;;;;;25.90;23.70;;;11.70;84.70;;;;;;4955504;28;20447;-85
2020/12/08 12:33:04;;;;;;;26.80;24.50;;;11.50;86.70;;;;;;4955220;28;20519;-83